Time;durP1;ratioP1;P1;durP2;ratioP2;P2;SDS_P1;SDS_P2;PMS_P1;PMS_P2;Temp;Humidity;BMP_temperature;BMP_pressure;BME280_temperature;BME280_humidity;BME280_pressure;Samples;Min_cycle;Max_cycle;Signal;HPM_P1;HPM_P2
2021/12/28 00:00:07;;;;;;;20.40;12.60;;;3.10;99.90;;;;;;5030094;28;20037;-56
2021/12/28 00:02:32;;;;;;;21.73;14.45;;;3.10;99.90;;;;;;5052011;28;20037;-59
2021/12/28 00:04:58;;;;;;;20.88;13.90;;;3.10;99.90;;;;;;5044212;28;20163;-55
2021/12/28 00:07:23;;;;;;;20.92;14.48;;;3.10;99.90;;;;;;5053075;28;20384;-53
2021/12/28 00:09:49;;;;;;;22.00;14.40;;;3.10;99.90;;;;;;5052355;28;20029;-56
2021/12/28 00:12:15;;;;;;;18.92;13.73;;;3.00;99.90;;;;;;5052466;28;20037;-59
2021/12/28 00:14:49;;;;;;;23.40;14.02;;;3.00;99.90;;;;;;5034827;28;20070;-55
2021/12/28 00:19:59;;;;;;;20.98;13.50;;;3.10;99.90;;;;;;5053007;28;20037;-56
2021/12/28 00:22:25;;;;;;;20.27;13.82;;;3.10;99.90;;;;;;5049997;28;20037;-52
2021/12/28 00:24:50;;;;;;;21.77;13.48;;;3.20;99.90;;;;;;5022231;28;20051;-54
2021/12/28 00:27:16;;;;;;;22.75;14.60;;;3.20;99.90;;;;;;5045239;28;20025;-58
2021/12/28 00:29:42;;;;;;;20.25;13.55;;;3.20;99.90;;;;;;5046605;28;20033;-53
2021/12/28 00:32:08;;;;;;;18.55;12.32;;;3.10;99.90;;;;;;5048162;28;20031;-57
2021/12/28 00:34:34;;;;;;;20.08;14.43;;;3.10;99.90;;;;;;5045733;28;20477;-55
2021/12/28 00:37:00;;;;;;;22.92;14.90;;;3.10;99.90;;;;;;5044878;28;20037;-54
2021/12/28 00:39:26;;;;;;;23.05;14.30;;;3.10;99.90;;;;;;5045058;28;20045;-53
2021/12/28 00:41:51;;;;;;;21.40;13.77;;;3.20;99.90;;;;;;5046516;28;20033;-55
2021/12/28 00:44:18;;;;;;;20.98;14.50;;;3.20;99.90;;;;;;5047762;28;20089;-54
2021/12/28 00:46:44;;;;;;;22.23;14.38;;;3.30;99.90;;;;;;5045688;28;20071;-55
2021/12/28 00:49:10;;;;;;;20.48;14.23;;;3.20;99.90;;;;;;5044018;28;20465;-55
2021/12/28 00:51:37;;;;;;;20.85;14.07;;;3.20;99.90;;;;;;5034350;28;20076;-55
2021/12/28 00:54:03;;;;;;;19.88;14.05;;;3.20;99.90;;;;;;5054656;28;20029;-57
2021/12/28 00:56:28;;;;;;;20.60;13.95;;;3.20;99.90;;;;;;5051065;28;20567;-54
2021/12/28 00:58:54;;;;;;;21.42;14.90;;;3.30;99.90;;;;;;5045445;28;20029;-56
2021/12/28 01:01:20;;;;;;;22.73;14.63;;;3.20;99.90;;;;;;5044329;28;20025;-57
2021/12/28 01:03:46;;;;;;;21.02;13.43;;;3.20;99.90;;;;;;5045183;28;20063;-58
2021/12/28 01:06:11;;;;;;;21.77;13.70;;;3.20;99.90;;;;;;5044223;28;20075;-56
2021/12/28 01:08:38;;;;;;;20.77;14.00;;;3.20;99.90;;;;;;5045668;28;20029;-55
2021/12/28 01:11:05;;;;;;;19.95;14.30;;;3.20;99.90;;;;;;5051425;28;20025;-55
2021/12/28 01:13:31;;;;;;;21.38;13.85;;;3.30;99.90;;;;;;5054557;28;20043;-55
2021/12/28 01:15:57;;;;;;;20.83;14.20;;;3.30;99.90;;;;;;5038048;28;20032;-53
2021/12/28 01:18:23;;;;;;;20.70;13.50;;;3.30;99.90;;;;;;5036836;28;20425;-55
2021/12/28 01:20:50;;;;;;;22.38;13.88;;;3.40;99.90;;;;;;5054198;28;20405;-52
2021/12/28 01:23:16;;;;;;;22.42;14.50;;;3.50;99.90;;;;;;5053827;28;20036;-56
2021/12/28 01:25:42;;;;;;;23.63;15.25;;;3.50;99.90;;;;;;5054141;28;20021;-54
2021/12/28 01:28:09;;;;;;;21.73;14.48;;;3.50;99.90;;;;;;5054666;28;20051;-52
2021/12/28 01:30:35;;;;;;;23.67;15.57;;;3.50;99.90;;;;;;5053638;28;20469;-53
2021/12/28 01:33:02;;;;;;;22.65;14.85;;;3.50;99.90;;;;;;5036185;28;20393;-57
2021/12/28 01:35:29;;;;;;;22.58;15.02;;;3.50;99.90;;;;;;5033593;28;20064;-56
2021/12/28 01:37:55;;;;;;;21.50;14.45;;;3.60;99.90;;;;;;5052452;28;20044;-57
2021/12/28 01:40:24;;;;;;;24.85;16.27;;;3.60;99.90;;;;;;5054166;28;20052;-57
2021/12/28 01:43:15;;;;;;;23.70;16.00;;;3.50;99.90;;;;;;5044818;28;20116;-58
2021/12/28 01:45:55;;;;;;;22.45;14.75;;;3.60;99.90;;;;;;5055405;28;20045;-55
2021/12/28 01:48:28;;;;;;;26.83;16.27;;;3.60;99.90;;;;;;5068845;28;20032;-55
2021/12/28 01:50:58;;;;;;;26.38;16.77;;;3.60;99.90;;;;;;5057859;28;20029;-54
2021/12/28 01:53:24;;;;;;;24.25;16.70;;;3.60;99.90;;;;;;5067881;28;20057;-55
2021/12/28 01:55:53;;;;;;;25.67;16.75;;;3.70;99.90;;;;;;5059885;28;20098;-56
2021/12/28 01:58:19;;;;;;;23.73;16.23;;;3.60;99.90;;;;;;5067948;28;20033;-55
2021/12/28 02:00:47;;;;;;;27.33;17.77;;;3.70;99.90;;;;;;5057889;28;20033;-58
2021/12/28 02:03:15;;;;;;;24.30;16.42;;;3.70;99.90;;;;;;5069580;28;20037;-57
2021/12/28 02:05:42;;;;;;;26.95;16.75;;;3.70;99.90;;;;;;5054164;28;20029;-54
2021/12/28 02:08:09;;;;;;;25.55;16.52;;;3.70;99.90;;;;;;5066129;28;20400;-56
2021/12/28 02:10:35;;;;;;;25.90;17.15;;;3.70;99.90;;;;;;5055606;28;20501;-52
2021/12/28 02:13:01;;;;;;;27.05;17.40;;;3.70;99.90;;;;;;5069007;28;20151;-56
2021/12/28 02:15:27;;;;;;;26.42;17.35;;;3.70;99.90;;;;;;5052450;28;20115;-51
2021/12/28 02:17:52;;;;;;;26.77;18.13;;;3.80;99.90;;;;;;5052460;28;20025;-57
2021/12/28 02:20:19;;;;;;;23.50;16.60;;;3.70;99.90;;;;;;5066151;28;20040;-56
2021/12/28 02:22:46;;;;;;;25.98;17.77;;;3.70;99.90;;;;;;5053859;28;20037;-56
2021/12/28 02:25:16;;;;;;;29.30;18.80;;;3.70;99.90;;;;;;5056968;28;20101;-56
2021/12/28 02:27:42;;;;;;;27.60;18.48;;;3.70;99.90;;;;;;5062803;28;20584;-56
2021/12/28 02:30:13;;;;;;;30.00;17.98;;;3.80;99.90;;;;;;5052086;28;20044;-57
2021/12/28 02:32:39;;;;;;;28.92;18.52;;;3.80;99.90;;;;;;5052175;28;20032;-56
2021/12/28 02:35:13;;;;;;;27.00;17.05;;;3.80;99.90;;;;;;5067697;28;20055;-59
2021/12/28 02:37:39;;;;;;;28.20;19.13;;;3.80;99.90;;;;;;5064533;28;20033;-54
2021/12/28 02:40:07;;;;;;;31.98;19.08;;;3.80;99.90;;;;;;5053854;28;20528;-56
2021/12/28 02:42:34;;;;;;;25.05;17.60;;;3.90;99.90;;;;;;5069092;28;20086;-54
2021/12/28 02:45:09;;;;;;;30.92;18.67;;;3.90;99.90;;;;;;5053638;28;20033;-55
2021/12/28 02:47:36;;;;;;;27.17;18.35;;;3.90;99.90;;;;;;5053308;28;20037;-56
2021/12/28 02:50:05;;;;;;;26.35;17.98;;;3.90;99.90;;;;;;5053449;28;20485;-55
2021/12/28 02:52:34;;;;;;;26.85;18.08;;;3.90;99.90;;;;;;5053934;28;20127;-55
2021/12/28 02:55:00;;;;;;;29.83;18.60;;;3.90;99.90;;;;;;5053819;28;20035;-56
2021/12/28 02:57:25;;;;;;;29.77;18.38;;;3.90;99.90;;;;;;5054045;28;20036;-54
2021/12/28 02:59:51;;;;;;;27.65;19.45;;;3.90;99.90;;;;;;5035008;28;20033;-54
2021/12/28 03:02:17;;;;;;;31.52;19.85;;;3.90;99.90;;;;;;5053808;28;20094;-57
2021/12/28 03:04:43;;;;;;;32.60;19.27;;;3.90;99.90;;;;;;5054159;28;20036;-58
2021/12/28 03:07:09;;;;;;;29.88;18.23;;;4.00;99.90;;;;;;5054043;28;20448;-56
2021/12/28 03:09:36;;;;;;;29.13;18.02;;;3.90;99.90;;;;;;5053714;28;20074;-56
2021/12/28 03:12:03;;;;;;;29.15;19.40;;;3.90;99.90;;;;;;5054108;28;20123;-51
2021/12/28 03:14:28;;;;;;;26.95;18.73;;;4.00;99.90;;;;;;5053326;28;20041;-57
2021/12/28 03:16:54;;;;;;;25.92;18.05;;;4.00;99.90;;;;;;5053881;28;20033;-54
2021/12/28 03:19:19;;;;;;;31.33;19.88;;;4.00;99.90;;;;;;5053726;28;20044;-56
2021/12/28 03:21:46;;;;;;;28.88;18.52;;;4.00;99.90;;;;;;5053417;28;20068;-55
2021/12/28 03:24:12;;;;;;;33.08;20.45;;;4.00;99.90;;;;;;5053572;28;20056;-53
2021/12/28 03:26:38;;;;;;;30.13;19.50;;;4.00;99.90;;;;;;5053472;28;20025;-53
2021/12/28 03:29:05;;;;;;;32.65;20.35;;;4.00;99.90;;;;;;5053174;28;20179;-57
2021/12/28 03:31:31;;;;;;;29.85;20.55;;;4.00;99.90;;;;;;5053636;28;20029;-55
2021/12/28 03:33:58;;;;;;;30.10;19.05;;;4.00;99.90;;;;;;5053117;28;20668;-56
2021/12/28 03:36:28;;;;;;;29.33;19.02;;;4.00;99.90;;;;;;5053669;28;20040;-57
2021/12/28 03:38:55;;;;;;;30.63;18.98;;;4.00;99.90;;;;;;5052606;28;20044;-58
2021/12/28 03:41:22;;;;;;;32.00;19.85;;;4.00;99.90;;;;;;5053092;28;20033;-55
2021/12/28 03:43:50;;;;;;;33.00;19.20;;;4.00;99.90;;;;;;5052914;28;20029;-54
2021/12/28 03:46:17;;;;;;;31.17;20.45;;;4.10;99.90;;;;;;5052957;28;20074;-56
2021/12/28 03:48:43;;;;;;;32.20;19.08;;;4.00;99.90;;;;;;5052876;28;20028;-53
2021/12/28 03:51:10;;;;;;;30.35;20.60;;;4.00;99.90;;;;;;5018880;28;20029;-51
2021/12/28 03:53:37;;;;;;;29.67;19.55;;;4.10;99.90;;;;;;5052443;28;20075;-53
2021/12/28 03:56:05;;;;;;;33.33;19.85;;;4.10;99.90;;;;;;5054040;28;20059;-55
2021/12/28 03:58:30;;;;;;;30.55;19.48;;;4.00;99.90;;;;;;5019333;28;20055;-55
2021/12/28 04:00:56;;;;;;;29.73;19.17;;;4.00;99.90;;;;;;5055936;28;20085;-55
2021/12/28 04:03:22;;;;;;;31.02;20.20;;;4.00;99.90;;;;;;5056735;28;20480;-56
2021/12/28 04:05:48;;;;;;;31.70;20.25;;;4.00;99.90;;;;;;5057700;28;20400;-51
2021/12/28 04:08:21;;;;;;;31.35;20.00;;;4.00;99.90;;;;;;5058143;28;20082;-49
2021/12/28 04:10:53;;;;;;;30.60;19.50;;;4.00;99.90;;;;;;5057375;28;20382;-54
2021/12/28 04:13:20;;;;;;;32.33;20.67;;;4.00;99.90;;;;;;5039278;28;20125;-53
2021/12/28 04:15:46;;;;;;;34.58;21.35;;;4.00;99.90;;;;;;5056848;28;20034;-53
2021/12/28 04:18:13;;;;;;;31.10;20.40;;;4.00;99.90;;;;;;5057017;28;20630;-55
2021/12/28 04:20:39;;;;;;;30.63;19.58;;;4.00;99.90;;;;;;5057140;28;20029;-55
2021/12/28 04:23:04;;;;;;;37.20;22.80;;;4.10;99.90;;;;;;5055322;28;20033;-57
2021/12/28 04:25:31;;;;;;;28.52;19.83;;;4.20;99.90;;;;;;5039475;28;20063;-55
2021/12/28 04:27:57;;;;;;;30.90;20.30;;;4.20;99.90;;;;;;5056207;28;20090;-54
2021/12/28 04:30:22;;;;;;;30.55;19.92;;;4.20;99.90;;;;;;5056508;28;20529;-51
2021/12/28 04:32:48;;;;;;;31.55;20.30;;;4.20;99.90;;;;;;5036467;28;20067;-53
2021/12/28 04:35:16;;;;;;;30.98;19.45;;;4.10;99.90;;;;;;5036152;28;20120;-56
2021/12/28 04:37:41;;;;;;;31.27;20.77;;;4.20;99.90;;;;;;5047734;28;20021;-55
2021/12/28 04:40:09;;;;;;;31.90;19.90;;;4.10;99.90;;;;;;5055679;28;20032;-54
2021/12/28 04:42:34;;;;;;;29.95;19.45;;;4.10;99.90;;;;;;5055610;28;20112;-58
2021/12/28 04:45:03;;;;;;;28.45;19.02;;;4.20;99.90;;;;;;5056493;28;20037;-52
2021/12/28 04:47:31;;;;;;;34.30;20.05;;;4.20;99.90;;;;;;5037604;28;20094;-54
2021/12/28 04:49:59;;;;;;;35.47;22.38;;;4.10;99.90;;;;;;5056050;28;20125;-56
2021/12/28 04:52:31;;;;;;;32.80;20.23;;;4.20;99.90;;;;;;5055498;28;20049;-54
2021/12/28 04:54:57;;;;;;;30.17;20.63;;;4.10;99.90;;;;;;5055772;28;20037;-53
2021/12/28 04:57:22;;;;;;;32.70;21.55;;;4.10;99.90;;;;;;5055533;28;20048;-55
2021/12/28 04:59:48;;;;;;;31.55;20.02;;;4.10;99.90;;;;;;5055598;28;20393;-54
2021/12/28 05:02:13;;;;;;;32.13;19.98;;;4.10;99.90;;;;;;5055257;28;20079;-52
2021/12/28 05:04:39;;;;;;;29.73;19.05;;;4.10;99.90;;;;;;5055787;28;20549;-57
2021/12/28 05:07:05;;;;;;;31.30;20.02;;;4.10;99.90;;;;;;5055902;28;20025;-55
2021/12/28 05:09:31;;;;;;;32.60;21.40;;;4.10;99.90;;;;;;5055366;28;20037;-56
2021/12/28 05:11:56;;;;;;;33.85;22.63;;;4.10;99.90;;;;;;5055929;28;20029;-58
2021/12/28 05:14:22;;;;;;;32.60;20.17;;;4.10;99.90;;;;;;5055525;28;20484;-53
2021/12/28 05:16:48;;;;;;;30.05;19.65;;;4.20;99.90;;;;;;5037810;28;20041;-57
2021/12/28 05:19:15;;;;;;;31.63;20.67;;;4.20;99.90;;;;;;5055530;28;20037;-58
2021/12/28 05:21:41;;;;;;;31.17;20.20;;;4.10;99.90;;;;;;5055691;28;20078;-56
2021/12/28 05:24:07;;;;;;;30.73;19.00;;;4.20;99.90;;;;;;5054437;28;20044;-58
2021/12/28 05:26:36;;;;;;;30.67;19.70;;;4.10;99.90;;;;;;5055242;28;20041;-55
2021/12/28 05:29:10;;;;;;;30.42;20.20;;;4.10;99.90;;;;;;5052921;28;20102;-56
2021/12/28 05:31:38;;;;;;;30.48;19.80;;;4.10;99.90;;;;;;5032160;28;20052;-54
2021/12/28 05:34:12;;;;;;;32.20;20.70;;;4.10;99.90;;;;;;5034606;28;20106;-58
2021/12/28 05:36:41;;;;;;;30.60;20.00;;;4.10;99.90;;;;;;5053520;28;20029;-54
2021/12/28 05:39:13;;;;;;;30.17;19.08;;;4.10;99.90;;;;;;5034746;28;20055;-55
2021/12/28 05:41:48;;;;;;;30.90;19.88;;;4.10;99.90;;;;;;5053276;28;20065;-55
2021/12/28 05:44:19;;;;;;;31.23;21.13;;;4.10;99.90;;;;;;5053087;28;20086;-54
2021/12/28 05:46:49;;;;;;;31.52;20.08;;;4.10;99.90;;;;;;5042769;28;20065;-54
2021/12/28 05:49:20;;;;;;;30.52;20.23;;;4.10;99.90;;;;;;5032180;28;20048;-57
2021/12/28 05:51:51;;;;;;;32.10;21.20;;;4.00;99.90;;;;;;5033821;28;20087;-57
2021/12/28 05:54:21;;;;;;;33.30;21.38;;;4.00;99.90;;;;;;5037253;28;20037;-56
2021/12/28 05:56:48;;;;;;;31.73;21.30;;;4.10;99.90;;;;;;5052163;28;20041;-57
2021/12/28 05:59:14;;;;;;;31.75;20.08;;;4.00;99.90;;;;;;5052687;28;20400;-58
2021/12/28 06:01:40;;;;;;;29.63;19.95;;;4.00;99.90;;;;;;5052669;28;20028;-54
2021/12/28 06:04:07;;;;;;;30.05;19.38;;;4.00;99.90;;;;;;5051894;28;20060;-56
2021/12/28 06:06:33;;;;;;;32.30;19.60;;;4.00;99.90;;;;;;5052611;28;20051;-52
2021/12/28 06:08:59;;;;;;;30.38;20.05;;;4.00;99.90;;;;;;5051853;28;20017;-53
2021/12/28 06:11:24;;;;;;;31.17;19.45;;;3.90;99.90;;;;;;5052148;28;20048;-51
2021/12/28 06:13:50;;;;;;;28.02;19.67;;;3.90;99.90;;;;;;5052080;28;20041;-52
2021/12/28 06:16:16;;;;;;;30.52;19.35;;;4.00;99.90;;;;;;5051765;28;20563;-52
2021/12/28 06:18:41;;;;;;;30.23;19.55;;;4.00;99.90;;;;;;5052072;28;20036;-55
2021/12/28 06:21:07;;;;;;;29.30;20.02;;;3.90;99.90;;;;;;5052608;28;20029;-52
2021/12/28 06:23:34;;;;;;;28.98;19.58;;;4.00;99.90;;;;;;5052988;28;20472;-55
2021/12/28 06:26:00;;;;;;;28.42;19.23;;;4.00;99.90;;;;;;5053762;28;20037;-55
2021/12/28 06:28:29;;;;;;;31.10;19.17;;;4.00;99.90;;;;;;5054069;28;20067;-56
2021/12/28 06:30:56;;;;;;;30.27;20.27;;;4.00;99.90;;;;;;5053390;28;20451;-58
2021/12/28 06:33:22;;;;;;;32.45;19.55;;;4.00;99.90;;;;;;5054124;28;20028;-55
2021/12/28 06:35:49;;;;;;;25.50;17.52;;;4.00;99.90;;;;;;5054058;28;20075;-57
2021/12/28 06:38:15;;;;;;;26.15;17.90;;;4.00;99.90;;;;;;5054383;28;20437;-56
2021/12/28 06:40:41;;;;;;;27.45;17.77;;;4.00;99.90;;;;;;5053403;28;20500;-55
2021/12/28 06:43:08;;;;;;;24.65;17.85;;;3.90;99.90;;;;;;5053635;28;20033;-58
2021/12/28 06:45:34;;;;;;;26.83;17.15;;;3.90;99.90;;;;;;5053684;28;20518;-50
2021/12/28 06:48:00;;;;;;;27.90;19.15;;;3.90;99.90;;;;;;5054511;28;20029;-57
2021/12/28 06:50:25;;;;;;;27.77;18.20;;;3.90;99.90;;;;;;5054249;28;20377;-55
2021/12/28 06:52:51;;;;;;;25.42;17.63;;;4.00;99.90;;;;;;5036093;28;20037;-55
2021/12/28 06:55:16;;;;;;;24.10;16.58;;;4.00;99.90;;;;;;5053755;28;20396;-54
2021/12/28 06:57:42;;;;;;;25.65;17.30;;;4.00;99.90;;;;;;5020106;28;20036;-56
2021/12/28 07:00:12;;;;;;;29.10;18.77;;;4.00;99.90;;;;;;5053817;28;20051;-54
2021/12/28 07:02:37;;;;;;;25.58;17.98;;;4.00;99.90;;;;;;5041790;28;20124;-54
2021/12/28 07:05:05;;;;;;;28.88;18.05;;;3.90;99.90;;;;;;5036127;28;20060;-52
2021/12/28 07:07:30;;;;;;;29.73;19.60;;;3.90;99.90;;;;;;5036114;28;20110;-52
2021/12/28 07:09:56;;;;;;;25.92;17.63;;;3.90;99.90;;;;;;5053731;28;20427;-55
2021/12/28 07:12:21;;;;;;;28.05;18.67;;;3.90;99.90;;;;;;5053409;28;20554;-55
2021/12/28 07:14:47;;;;;;;24.05;16.38;;;3.90;99.90;;;;;;5053720;28;20087;-55
2021/12/28 07:17:13;;;;;;;27.15;16.85;;;3.90;99.90;;;;;;5053593;28;20037;-54
2021/12/28 07:19:38;;;;;;;25.73;18.10;;;3.80;99.90;;;;;;5052770;28;20036;-53
2021/12/28 07:22:04;;;;;;;25.08;16.95;;;3.80;99.90;;;;;;5034899;28;20049;-53
2021/12/28 07:24:30;;;;;;;21.58;15.32;;;3.90;99.90;;;;;;5053194;28;20037;-54
2021/12/28 07:26:57;;;;;;;22.88;15.77;;;3.90;99.90;;;;;;5052693;28;20044;-53
2021/12/28 07:29:22;;;;;;;23.80;16.63;;;4.00;99.90;;;;;;5052987;28;20419;-52
2021/12/28 07:31:48;;;;;;;24.23;15.85;;;4.00;99.90;;;;;;5051845;28;20048;-53
2021/12/28 07:34:14;;;;;;;25.27;16.33;;;4.00;99.90;;;;;;5053672;28;20037;-53
2021/12/28 07:36:40;;;;;;;22.77;16.02;;;3.90;99.90;;;;;;5057654;28;20045;-57
2021/12/28 07:39:06;;;;;;;24.98;15.38;;;3.90;99.90;;;;;;5039442;28;20028;-55
2021/12/28 07:41:32;;;;;;;23.13;15.43;;;3.90;99.90;;;;;;5056595;28;20041;-54
2021/12/28 07:43:59;;;;;;;21.70;15.15;;;4.00;99.90;;;;;;5056391;28;20544;-58
2021/12/28 07:46:24;;;;;;;22.98;15.35;;;4.00;99.90;;;;;;5038064;28;20029;-56
2021/12/28 07:48:50;;;;;;;22.98;15.15;;;4.00;99.90;;;;;;5056957;28;20032;-53
2021/12/28 07:51:16;;;;;;;20.73;16.38;;;4.00;99.90;;;;;;5056678;28;20159;-56
2021/12/28 07:53:41;;;;;;;21.52;15.30;;;4.00;99.90;;;;;;5039014;28;20423;-55
2021/12/28 07:56:07;;;;;;;24.25;16.83;;;4.10;99.90;;;;;;5057475;28;20059;-53
2021/12/28 07:58:33;;;;;;;22.80;14.93;;;4.10;99.90;;;;;;5056968;28;20033;-52
2021/12/28 08:00:59;;;;;;;21.60;15.45;;;4.10;99.90;;;;;;5052598;28;20033;-55
2021/12/28 08:03:25;;;;;;;21.98;14.85;;;4.10;99.90;;;;;;5036316;28;20056;-55
2021/12/28 08:05:52;;;;;;;22.33;16.13;;;4.10;99.90;;;;;;5044611;28;20028;-55
2021/12/28 08:08:18;;;;;;;24.80;17.55;;;4.20;99.90;;;;;;5056942;28;20477;-52
2021/12/28 08:10:44;;;;;;;21.02;15.60;;;4.20;99.90;;;;;;5028962;28;20042;-56
2021/12/28 08:13:10;;;;;;;22.25;14.75;;;4.20;99.90;;;;;;5036547;28;20105;-55
2021/12/28 08:15:36;;;;;;;21.48;15.52;;;4.20;99.90;;;;;;5029634;28;20056;-52
2021/12/28 08:18:03;;;;;;;20.90;15.35;;;4.20;99.90;;;;;;5056386;28;20560;-54
2021/12/28 08:20:29;;;;;;;22.73;15.73;;;4.30;99.90;;;;;;5053344;28;20044;-56
2021/12/28 08:22:56;;;;;;;20.75;14.07;;;4.30;99.90;;;;;;5056748;28;20029;-52
2021/12/28 08:25:23;;;;;;;20.67;14.32;;;4.40;99.90;;;;;;5055803;28;20033;-54
2021/12/28 08:27:49;;;;;;;21.10;15.45;;;4.40;99.90;;;;;;5046094;28;20056;-55
2021/12/28 08:30:17;;;;;;;20.67;14.05;;;4.40;99.90;;;;;;5046849;28;20037;-56
2021/12/28 08:32:43;;;;;;;20.70;14.65;;;4.50;99.90;;;;;;5053174;28;20033;-54
2021/12/28 08:35:10;;;;;;;23.70;15.48;;;4.50;99.90;;;;;;5053755;28;20055;-57
2021/12/28 08:37:37;;;;;;;20.33;14.15;;;4.50;99.90;;;;;;5053733;28;20029;-57
2021/12/28 08:40:05;;;;;;;18.83;13.52;;;4.60;99.90;;;;;;5055784;28;20029;-53
2021/12/28 08:42:30;;;;;;;21.52;14.23;;;4.60;99.90;;;;;;5050087;28;20037;-57
2021/12/28 08:44:56;;;;;;;19.80;13.88;;;4.70;99.90;;;;;;5021108;28;20029;-54
2021/12/28 08:47:26;;;;;;;19.17;13.38;;;4.70;99.90;;;;;;5049257;28;20029;-59
2021/12/28 08:49:55;;;;;;;18.48;13.02;;;4.80;99.90;;;;;;5052713;28;20021;-58
2021/12/28 08:52:22;;;;;;;21.67;14.95;;;4.80;99.90;;;;;;5053567;28;20508;-56
2021/12/28 08:54:48;;;;;;;22.40;15.27;;;4.80;99.90;;;;;;5054503;28;20115;-53
2021/12/28 08:57:13;;;;;;;20.35;14.82;;;4.90;99.90;;;;;;5038271;28;20053;-58
2021/12/28 08:59:39;;;;;;;21.52;14.90;;;4.90;99.90;;;;;;5056982;28;20031;-55
2021/12/28 09:02:07;;;;;;;24.10;14.07;;;4.90;99.90;;;;;;5053561;28;20123;-56
2021/12/28 09:04:33;;;;;;;21.02;14.80;;;4.90;99.90;;;;;;5050461;28;20484;-57
2021/12/28 09:06:59;;;;;;;21.45;15.13;;;4.90;99.90;;;;;;5043247;28;20037;-58
2021/12/28 09:09:24;;;;;;;25.13;16.25;;;4.90;99.90;;;;;;5040908;28;20040;-56
2021/12/28 09:11:50;;;;;;;20.95;14.98;;;4.90;99.90;;;;;;5055454;28;20539;-57
2021/12/28 09:14:15;;;;;;;21.60;14.88;;;4.90;99.90;;;;;;5053820;28;20400;-56
2021/12/28 09:16:41;;;;;;;24.92;16.38;;;4.90;99.90;;;;;;5055474;28;20032;-56
2021/12/28 09:19:07;;;;;;;25.17;15.45;;;5.00;99.90;;;;;;5036766;28;20095;-57
2021/12/28 09:21:32;;;;;;;25.38;14.55;;;5.10;99.90;;;;;;5054673;28;20480;-55
2021/12/28 09:23:59;;;;;;;21.60;15.23;;;5.10;99.90;;;;;;5054530;28;20044;-58
2021/12/28 09:26:24;;;;;;;20.70;14.32;;;5.10;99.90;;;;;;5047095;28;20040;-53
2021/12/28 09:28:50;;;;;;;23.77;15.55;;;5.20;99.90;;;;;;5042651;28;20406;-56
2021/12/28 09:31:16;;;;;;;26.25;16.48;;;5.20;99.90;;;;;;5036781;28;20044;-51
2021/12/28 09:33:41;;;;;;;26.38;16.63;;;5.30;99.90;;;;;;5055069;28;20136;-60
2021/12/28 09:36:09;;;;;;;28.40;18.35;;;5.30;99.90;;;;;;5045327;28;20037;-57
2021/12/28 09:38:35;;;;;;;27.33;15.75;;;5.40;99.90;;;;;;5034827;28;20128;-57
2021/12/28 09:41:01;;;;;;;24.80;15.63;;;5.40;99.90;;;;;;5043398;28;20032;-55
2021/12/28 09:43:27;;;;;;;22.30;15.10;;;5.40;99.90;;;;;;5036706;28;20481;-56
2021/12/28 09:45:53;;;;;;;28.95;18.70;;;5.50;99.90;;;;;;5036798;28;20029;-56
2021/12/28 09:48:18;;;;;;;22.92;14.65;;;6.00;99.90;;;;;;5054770;28;20055;-53
2021/12/28 09:50:44;;;;;;;19.38;14.23;;;6.30;99.90;;;;;;5054453;28;20021;-52
2021/12/28 09:53:13;;;;;;;22.38;15.07;;;6.40;99.90;;;;;;5054101;28;20535;-54
2021/12/28 09:55:39;;;;;;;25.65;16.25;;;6.40;99.90;;;;;;5052330;28;20388;-54
2021/12/28 09:58:05;;;;;;;23.98;16.23;;;6.40;99.90;;;;;;5053083;28;20033;-56
2021/12/28 10:00:31;;;;;;;26.05;15.95;;;6.30;99.90;;;;;;5054165;28;20032;-56
2021/12/28 10:02:56;;;;;;;24.70;15.10;;;6.20;99.90;;;;;;5049242;28;20041;-55
2021/12/28 10:05:25;;;;;;;24.85;15.10;;;6.30;99.90;;;;;;5036420;28;20491;-54
2021/12/28 10:07:56;;;;;;;39.85;26.17;;;6.30;99.90;;;;;;5053728;28;20033;-55
2021/12/28 10:10:27;;;;;;;28.17;19.67;;;6.30;99.90;;;;;;5036283;28;20542;-55
2021/12/28 10:12:55;;;;;;;28.73;16.25;;;6.30;99.90;;;;;;5054059;28;20029;-51
2021/12/28 10:15:25;;;;;;;27.20;17.42;;;6.30;99.90;;;;;;5054007;28;20084;-54
2021/12/28 10:17:54;;;;;;;25.38;16.10;;;6.30;99.90;;;;;;5053532;28;20033;-58
2021/12/28 10:20:33;;;;;;;26.67;15.65;;;6.30;99.90;;;;;;5090914;27;20382;-57
2021/12/28 10:23:26;;;;;;;25.05;15.25;;;6.20;99.90;;;;;;5072304;28;20028;-59
2021/12/28 10:26:15;;;;;;;24.67;15.48;;;6.10;99.90;;;;;;5062054;28;20439;-60
2021/12/28 10:29:01;;;;;;;26.15;14.77;;;6.10;99.90;;;;;;5064638;28;20083;-60
2021/12/28 10:31:45;;;;;;;24.50;14.00;;;5.90;99.90;;;;;;5053197;28;20400;-57
2021/12/28 10:34:29;;;;;;;22.58;14.02;;;5.90;99.90;;;;;;5069823;28;20044;-54
2021/12/28 10:37:36;;;;;;;25.17;14.20;;;5.80;99.90;;;;;;5067457;28;20044;-53
2021/12/28 10:40:42;;;;;;;22.05;14.75;;;5.80;99.90;;;;;;5069814;28;20104;-53
2021/12/28 10:43:30;;;;;;;26.98;17.17;;;5.70;99.90;;;;;;5069511;28;20028;-58
2021/12/28 10:46:17;;;;;;;30.13;20.45;;;5.70;99.90;;;;;;5068120;28;20035;-57
2021/12/28 10:49:02;;;;;;;26.30;17.17;;;5.70;99.90;;;;;;5071162;28;20051;-57
2021/12/28 10:51:48;;;;;;;23.52;14.18;;;5.80;99.90;;;;;;5070141;28;20067;-55
2021/12/28 10:54:32;;;;;;;21.35;13.43;;;5.80;99.90;;;;;;5068956;28;20098;-57
2021/12/28 10:57:16;;;;;;;20.23;14.10;;;5.80;99.90;;;;;;5070366;28;20414;-60
2021/12/28 11:00:26;;;;;;;24.85;13.90;;;5.80;99.90;;;;;;5076689;28;20035;-61
2021/12/28 11:03:16;;;;;;;21.73;12.77;;;5.80;99.90;;;;;;5075625;28;20753;-60
2021/12/28 11:06:07;;;;;;;22.23;13.23;;;5.80;99.90;;;;;;5077740;28;20051;-58
2021/12/28 11:08:57;;;;;;;21.95;12.55;;;5.70;99.90;;;;;;5078998;28;20032;-56
2021/12/28 11:11:41;;;;;;;19.90;11.63;;;5.80;99.90;;;;;;5076521;28;20106;-55
2021/12/28 11:14:29;;;;;;;21.00;13.07;;;5.80;99.90;;;;;;5074414;28;20094;-57
2021/12/28 11:17:13;;;;;;;21.25;12.57;;;5.90;99.90;;;;;;5078331;28;20043;-60
2021/12/28 11:19:58;;;;;;;20.70;13.25;;;5.90;99.90;;;;;;5074863;28;20048;-56
2021/12/28 11:23:01;;;;;;;;;;;5.90;99.90;;;;;;5073717;28;20039;-60
2021/12/28 11:25:59;;;;;;;20.33;12.00;;;6.00;99.90;;;;;;5075222;28;20390;-58
2021/12/28 11:28:54;;;;;;;16.73;11.65;;;6.00;99.90;;;;;;5067588;28;20039;-57
2021/12/28 11:32:00;;;;;;;18.13;12.52;;;6.10;99.90;;;;;;5054068;28;20107;-55
2021/12/28 11:34:46;;;;;;;21.10;12.32;;;6.10;99.90;;;;;;5054386;28;20028;-57
2021/12/28 11:37:31;;;;;;;;;;;6.20;99.90;;;;;;5054899;28;20134;-60
2021/12/28 11:40:15;;;;;;;19.23;11.98;;;6.40;99.90;;;;;;5052328;28;19982;-60
2021/12/28 11:42:59;;;;;;;17.17;11.43;;;6.40;99.90;;;;;;5054088;28;20565;-56
2021/12/28 11:45:44;;;;;;;20.08;11.40;;;6.60;99.90;;;;;;5055728;28;20095;-56
2021/12/28 11:48:29;;;;;;;16.58;11.60;;;6.70;99.90;;;;;;5039050;28;20136;-57
2021/12/28 11:51:14;;;;;;;16.73;11.57;;;6.90;99.90;;;;;;5053943;28;20566;-55
2021/12/28 11:54:02;;;;;;;15.98;11.27;;;6.90;99.90;;;;;;5054620;28;20552;-60
2021/12/28 11:56:57;;;;;;;19.33;12.27;;;6.80;99.90;;;;;;5046470;28;20451;-62
2021/12/28 11:59:41;;;;;;;18.73;12.40;;;6.80;99.90;;;;;;5054401;28;20036;-56
2021/12/28 12:02:56;;;;;;;18.88;11.68;;;6.80;99.90;;;;;;5053812;28;20044;-54
2021/12/28 12:05:44;;;;;;;19.10;12.75;;;6.70;99.90;;;;;;5052955;28;20036;-58
2021/12/28 12:08:29;;;;;;;18.67;12.48;;;6.60;99.90;;;;;;5057341;28;20039;-55
2021/12/28 12:11:13;;;;;;;15.30;11.40;;;6.60;99.90;;;;;;5055139;28;20059;-58
2021/12/28 12:13:57;;;;;;;19.55;11.43;;;6.50;99.90;;;;;;5054233;28;20051;-58
2021/12/28 12:16:41;;;;;;;18.27;10.77;;;6.50;99.90;;;;;;5053430;28;20044;-59
2021/12/28 12:19:47;;;;;;;17.15;10.77;;;6.40;99.90;;;;;;5054322;28;20408;-55
2021/12/28 12:22:30;;;;;;;14.52;11.05;;;6.40;99.90;;;;;;5054675;28;20515;-54
2021/12/28 12:25:29;;;;;;;14.85;10.88;;;6.50;99.90;;;;;;5034205;28;20032;-58
2021/12/28 12:28:14;;;;;;;15.93;11.15;;;6.50;99.90;;;;;;5039287;28;20028;-59
2021/12/28 12:31:00;;;;;;;14.05;10.85;;;6.50;99.90;;;;;;5054446;28;20103;-51
2021/12/28 12:33:44;;;;;;;16.73;11.25;;;6.60;99.90;;;;;;5053894;28;20040;-52
2021/12/28 12:36:38;;;;;;;16.27;12.13;;;6.50;99.90;;;;;;5054763;28;20055;-53
2021/12/28 12:39:24;;;;;;;16.77;12.20;;;6.50;99.90;;;;;;5054712;28;20063;-49
2021/12/28 12:42:12;;;;;;;19.45;13.68;;;6.50;99.90;;;;;;5052634;28;20924;-52
2021/12/28 12:44:56;;;;;;;15.18;11.57;;;6.50;99.90;;;;;;5053870;28;20052;-54
2021/12/28 12:47:40;;;;;;;19.07;12.50;;;6.50;99.90;;;;;;5053827;28;20063;-57
2021/12/28 12:50:26;;;;;;;16.85;11.82;;;6.50;99.90;;;;;;5053841;28;20055;-52
2021/12/28 12:53:42;;;;;;;13.77;11.25;;;6.60;99.90;;;;;;5048065;28;20573;-56
2021/12/28 12:56:32;;;;;;;;;;;6.70;99.90;;;;;;5054006;28;20048;-50
2021/12/28 12:59:17;;;;;;;13.02;10.32;;;6.70;99.90;;;;;;5054051;28;19939;-57